Time;durP1;ratioP1;P1;durP2;ratioP2;P2;SDS_P1;SDS_P2;PMS_P1;PMS_P2;Temp;Humidity;BMP_temperature;BMP_pressure;BME280_temperature;BME280_humidity;BME280_pressure;Samples;Min_cycle;Max_cycle;Signal;HPM_P1;HPM_P2
2022/10/06 00:00:52;;;;;;;7.75;1.40;;;12.20;99.90;;;;;;5073681;28;20607;-75
2022/10/06 00:03:21;;;;;;;9.88;1.60;;;12.20;99.90;;;;;;5055860;28;20051;-76
2022/10/06 00:05:48;;;;;;;10.38;1.75;;;12.10;99.90;;;;;;5037524;28;20445;-75
2022/10/06 00:08:14;;;;;;;10.52;1.73;;;12.10;99.90;;;;;;5027259;28;20687;-79
2022/10/06 00:10:40;;;;;;;9.40;1.30;;;12.00;99.90;;;;;;5071985;28;20066;-75
2022/10/06 00:13:06;;;;;;;7.25;1.38;;;12.00;99.90;;;;;;5068103;28;20049;-75
2022/10/06 00:15:33;;;;;;;9.02;1.55;;;12.00;99.90;;;;;;5060954;28;20075;-75
2022/10/06 00:17:59;;;;;;;6.22;1.30;;;12.00;99.90;;;;;;5057683;28;20083;-75
2022/10/06 00:20:25;;;;;;;13.15;1.23;;;12.00;99.90;;;;;;5050171;28;20069;-75
2022/10/06 00:22:51;;;;;;;6.75;1.20;;;11.90;99.90;;;;;;5063422;28;20618;-75
2022/10/06 00:25:19;;;;;;;8.75;1.33;;;11.90;99.90;;;;;;5033195;28;20078;-78
2022/10/06 00:27:47;;;;;;;12.93;1.77;;;11.90;99.90;;;;;;5051966;28;20045;-75
2022/10/06 00:30:19;;;;;;;9.68;1.55;;;11.90;99.90;;;;;;5060601;28;20731;-76
2022/10/06 00:32:57;;;;;;;9.10;1.40;;;11.90;99.90;;;;;;5058358;28;20388;-76
2022/10/06 00:35:24;;;;;;;8.23;1.35;;;11.90;99.90;;;;;;5059315;28;20044;-76
2022/10/06 00:37:50;;;;;;;11.27;1.92;;;11.90;99.90;;;;;;5054772;28;20066;-78
2022/10/06 00:40:17;;;;;;;11.48;1.77;;;11.90;99.90;;;;;;5050411;28;20046;-75
2022/10/06 00:43:03;;;;;;;8.27;1.45;;;11.90;99.90;;;;;;5069558;28;20108;-76
2022/10/06 00:45:38;;;;;;;8.15;1.30;;;11.90;99.90;;;;;;5064880;28;20070;-77
2022/10/06 00:48:17;;;;;;;7.28;1.25;;;11.90;99.90;;;;;;5043047;28;20048;-76
2022/10/06 00:50:44;;;;;;;8.52;2.10;;;11.90;99.90;;;;;;5053937;28;20048;-75
2022/10/06 00:53:10;;;;;;;7.10;1.20;;;11.90;99.90;;;;;;5085843;28;20051;-76
2022/10/06 00:55:36;;;;;;;8.75;1.67;;;11.90;99.90;;;;;;5071380;28;20048;-75
2022/10/06 00:58:03;;;;;;;12.90;1.73;;;11.90;99.90;;;;;;5067421;28;20385;-75
2022/10/06 01:00:29;;;;;;;11.88;1.75;;;11.90;99.90;;;;;;5063234;28;20056;-76
2022/10/06 01:03:00;;;;;;;8.75;1.42;;;11.80;99.90;;;;;;5066455;28;20073;-78
2022/10/06 01:05:30;;;;;;;7.10;1.90;;;11.70;99.90;;;;;;5063351;28;20052;-76
2022/10/06 01:07:55;;;;;;;7.68;1.63;;;11.70;99.90;;;;;;5068684;28;20044;-75
2022/10/06 01:10:21;;;;;;;8.77;1.60;;;11.70;99.90;;;;;;5054889;28;20517;-75
2022/10/06 01:12:47;;;;;;;8.48;1.30;;;11.70;99.90;;;;;;5056845;28;20044;-75
2022/10/06 01:15:14;;;;;;;10.82;1.70;;;11.60;99.90;;;;;;5035734;28;20448;-76
2022/10/06 01:17:51;;;;;;;8.90;1.40;;;11.60;99.90;;;;;;5068151;28;20087;-76
2022/10/06 01:20:18;;;;;;;13.63;1.63;;;11.60;99.90;;;;;;5071999;28;20056;-76
2022/10/06 01:22:47;;;;;;;9.30;1.55;;;11.60;99.90;;;;;;5069597;28;20058;-76
2022/10/06 01:25:15;;;;;;;10.20;1.48;;;11.50;99.90;;;;;;5043951;28;20450;-76
2022/10/06 01:27:44;;;;;;;16.80;1.88;;;11.40;99.90;;;;;;5068131;28;20226;-75
2022/10/06 01:30:14;;;;;;;14.45;1.60;;;11.30;99.90;;;;;;5052295;28;20066;-76
2022/10/06 01:32:40;;;;;;;6.22;1.30;;;11.20;99.90;;;;;;5053029;28;20051;-76
2022/10/06 01:35:08;;;;;;;10.93;1.90;;;11.20;99.90;;;;;;5052982;28;20097;-76
2022/10/06 01:37:34;;;;;;;11.63;2.72;;;11.10;99.90;;;;;;5069324;28;20075;-76
2022/10/06 01:40:00;;;;;;;11.35;1.50;;;11.20;99.90;;;;;;5069283;28;20156;-76
2022/10/06 01:42:26;;;;;;;11.30;2.45;;;11.10;99.90;;;;;;5068396;28;20044;-76
2022/10/06 01:44:51;;;;;;;9.77;1.98;;;11.10;99.90;;;;;;5048365;28;20052;-76
2022/10/06 01:47:17;;;;;;;12.45;1.40;;;11.00;99.90;;;;;;5062313;28;20040;-76
2022/10/06 01:49:43;;;;;;;9.95;1.48;;;11.00;99.90;;;;;;5050482;28;20051;-76
2022/10/06 01:52:08;;;;;;;11.23;1.58;;;10.90;99.90;;;;;;5067421;28;20192;-76
2022/10/06 01:54:34;;;;;;;10.18;1.50;;;10.90;99.90;;;;;;5050929;28;20044;-76
2022/10/06 01:57:00;;;;;;;11.63;1.92;;;10.90;99.90;;;;;;5032353;28;20123;-76
2022/10/06 01:59:26;;;;;;;11.57;2.05;;;10.90;99.90;;;;;;5049901;28;20048;-75
2022/10/06 02:01:51;;;;;;;9.05;1.45;;;11.00;99.90;;;;;;5059839;28;20474;-76
2022/10/06 02:04:17;;;;;;;9.50;1.58;;;11.00;99.90;;;;;;5067942;28;20043;-76
2022/10/06 02:06:43;;;;;;;18.02;2.03;;;11.00;99.90;;;;;;5051304;28;20401;-75
2022/10/06 02:09:09;;;;;;;12.35;1.92;;;11.00;99.90;;;;;;5051130;28;20063;-76
2022/10/06 02:11:35;;;;;;;11.85;1.50;;;10.80;99.90;;;;;;5049841;28;20143;-79
2022/10/06 02:14:01;;;;;;;12.75;1.60;;;10.80;99.90;;;;;;5070711;28;20119;-76
2022/10/06 02:16:28;;;;;;;8.63;1.40;;;10.70;99.90;;;;;;5052861;28;20490;-76
2022/10/06 02:18:54;;;;;;;11.95;1.75;;;10.70;99.90;;;;;;5069133;28;20658;-75
2022/10/06 02:21:21;;;;;;;11.75;1.65;;;10.60;99.90;;;;;;5047103;28;20049;-75
2022/10/06 02:23:47;;;;;;;10.80;1.58;;;10.60;99.90;;;;;;5069610;28;20122;-76
2022/10/06 02:26:17;;;;;;;16.95;1.80;;;10.60;99.90;;;;;;5053096;28;20079;-75
2022/10/06 02:28:45;;;;;;;11.95;1.73;;;10.50;99.90;;;;;;5043912;28;20044;-75
2022/10/06 02:31:12;;;;;;;12.80;2.22;;;10.60;99.90;;;;;;5045170;28;20444;-74
2022/10/06 02:33:39;;;;;;;10.35;1.80;;;10.50;99.90;;;;;;5049956;28;20043;-78
2022/10/06 02:36:06;;;;;;;9.20;1.73;;;10.50;99.90;;;;;;5070043;28;20058;-77
2022/10/06 02:38:32;;;;;;;9.70;1.60;;;10.60;99.90;;;;;;5070540;28;20481;-74
2022/10/06 02:40:59;;;;;;;13.50;1.63;;;10.50;99.90;;;;;;5086377;28;20036;-75
2022/10/06 02:43:28;;;;;;;10.32;1.73;;;10.50;99.90;;;;;;5036910;28;20121;-74
2022/10/06 02:46:00;;;;;;;10.35;1.65;;;10.50;99.90;;;;;;5068455;28;20080;-74
2022/10/06 02:48:27;;;;;;;8.55;1.25;;;10.50;99.90;;;;;;5058655;28;20044;-74
2022/10/06 02:51:00;;;;;;;13.05;1.73;;;10.40;99.90;;;;;;5074039;28;20053;-75
2022/10/06 02:53:27;;;;;;;15.75;2.28;;;10.40;99.90;;;;;;5061189;28;20550;-75
2022/10/06 02:56:00;;;;;;;10.20;2.00;;;10.40;99.90;;;;;;5063630;28;20063;-74
2022/10/06 02:58:30;;;;;;;11.60;1.67;;;10.30;99.90;;;;;;5069208;28;20137;-75
2022/10/06 03:01:08;;;;;;;11.60;2.13;;;10.30;99.90;;;;;;5059167;28;20059;-75
2022/10/06 03:03:34;;;;;;;11.88;2.03;;;10.30;99.90;;;;;;5068809;28;20052;-74
2022/10/06 03:06:03;;;;;;;12.00;2.15;;;10.30;99.90;;;;;;5069182;28;20035;-75
2022/10/06 03:08:29;;;;;;;9.75;1.13;;;10.30;99.90;;;;;;5074439;28;20648;-77
2022/10/06 03:11:02;;;;;;;11.60;1.60;;;10.40;99.90;;;;;;5039021;28;20135;-75
2022/10/06 03:13:29;;;;;;;8.40;1.42;;;10.40;99.90;;;;;;5074868;28;20051;-75
2022/10/06 03:15:56;;;;;;;13.48;1.70;;;10.40;99.90;;;;;;5073764;28;20222;-75
2022/10/06 03:18:22;;;;;;;9.80;1.67;;;10.40;99.90;;;;;;5072509;28;20047;-75
2022/10/06 03:20:47;;;;;;;7.40;1.35;;;10.40;99.90;;;;;;5041139;28;20047;-75
2022/10/06 03:23:13;;;;;;;10.50;1.33;;;10.40;99.90;;;;;;5053818;28;20053;-75
2022/10/06 03:25:39;;;;;;;14.10;1.83;;;10.40;99.90;;;;;;5037471;28;20509;-76
2022/10/06 03:28:05;;;;;;;9.45;2.05;;;10.30;99.90;;;;;;5072819;28;20043;-75
2022/10/06 03:30:30;;;;;;;12.30;1.55;;;10.30;99.90;;;;;;5055246;28;20113;-75
2022/10/06 03:32:58;;;;;;;8.90;1.45;;;10.30;99.90;;;;;;5053020;28;20485;-75
2022/10/06 03:35:24;;;;;;;9.93;1.55;;;10.30;99.90;;;;;;5069934;28;20059;-76
2022/10/06 03:37:50;;;;;;;12.77;2.50;;;10.30;99.90;;;;;;5071115;28;20117;-75
2022/10/06 03:40:15;;;;;;;7.75;1.27;;;10.20;99.90;;;;;;5056465;28;20130;-75
2022/10/06 03:42:41;;;;;;;12.13;1.42;;;10.10;99.90;;;;;;5073008;28;20075;-75
2022/10/06 03:45:07;;;;;;;13.18;1.90;;;10.00;99.90;;;;;;5090538;28;20050;-76
2022/10/06 03:47:33;;;;;;;8.80;1.15;;;10.00;99.90;;;;;;5072486;28;20051;-75
2022/10/06 03:49:59;;;;;;;12.85;2.10;;;10.00;99.90;;;;;;5068900;28;20075;-76
2022/10/06 03:52:24;;;;;;;9.50;1.40;;;10.00;99.90;;;;;;5067937;28;20052;-75
2022/10/06 03:54:50;;;;;;;13.38;2.05;;;9.90;99.90;;;;;;5056222;28;20070;-76
2022/10/06 03:57:15;;;;;;;13.88;2.08;;;9.90;99.90;;;;;;5073379;28;20051;-75
2022/10/06 03:59:41;;;;;;;9.30;1.17;;;9.80;99.90;;;;;;5079580;28;20093;-75
2022/10/06 04:02:07;;;;;;;8.45;1.38;;;9.80;99.90;;;;;;5056704;28;20173;-75
2022/10/06 04:04:32;;;;;;;11.52;1.90;;;9.70;99.90;;;;;;5059384;28;20044;-75
2022/10/06 04:06:58;;;;;;;12.70;1.67;;;9.60;99.90;;;;;;5048730;28;20052;-75
2022/10/06 04:09:24;;;;;;;9.25;1.48;;;9.60;99.90;;;;;;5061946;28;20067;-75
2022/10/06 04:11:50;;;;;;;10.57;1.48;;;9.60;99.90;;;;;;5057162;28;20784;-79
2022/10/06 04:14:16;;;;;;;14.80;2.08;;;9.70;99.90;;;;;;5061915;28;20044;-75
2022/10/06 04:16:46;;;;;;;10.20;1.20;;;9.70;99.90;;;;;;5063006;28;20044;-76
2022/10/06 04:19:14;;;;;;;11.15;1.60;;;9.60;99.90;;;;;;5043608;28;20176;-76
2022/10/06 04:21:42;;;;;;;14.27;1.83;;;9.60;99.90;;;;;;5057030;28;20063;-75
2022/10/06 04:24:09;;;;;;;12.10;1.67;;;9.60;99.90;;;;;;5056463;28;20071;-75
2022/10/06 04:26:38;;;;;;;9.35;1.52;;;9.60;99.90;;;;;;5057263;28;20051;-77
2022/10/06 04:29:04;;;;;;;11.10;1.85;;;9.60;99.90;;;;;;5056620;28;20043;-76
2022/10/06 04:31:35;;;;;;;10.57;2.00;;;9.50;99.90;;;;;;5055064;28;20044;-75
2022/10/06 04:34:02;;;;;;;7.68;1.50;;;9.60;99.90;;;;;;5057711;28;20184;-75
2022/10/06 04:36:39;;;;;;;8.38;1.50;;;9.60;99.90;;;;;;5063716;28;20059;-74
2022/10/06 04:39:07;;;;;;;12.13;1.60;;;9.60;99.90;;;;;;5052243;28;20048;-75
2022/10/06 04:41:35;;;;;;;12.70;1.55;;;9.60;99.90;;;;;;5068771;28;20153;-75
2022/10/06 04:44:01;;;;;;;12.43;1.92;;;9.60;99.90;;;;;;5057863;28;20067;-73
2022/10/06 04:46:28;;;;;;;12.75;1.90;;;9.70;99.90;;;;;;5045249;28;20099;-75
2022/10/06 04:48:54;;;;;;;11.43;2.38;;;9.70;99.90;;;;;;5063270;28;20055;-75
2022/10/06 04:51:22;;;;;;;10.38;1.60;;;9.70;99.90;;;;;;5039035;28;20099;-75
2022/10/06 04:53:49;;;;;;;16.85;1.98;;;9.80;99.90;;;;;;5057173;28;20052;-74
2022/10/06 04:56:24;;;;;;;10.45;1.48;;;9.80;99.90;;;;;;5064970;28;20402;-77
2022/10/06 04:58:51;;;;;;;20.17;2.58;;;9.70;99.90;;;;;;5050123;28;20113;-75
2022/10/06 05:01:22;;;;;;;14.55;1.80;;;9.70;99.90;;;;;;5044200;28;20040;-75
2022/10/06 05:03:49;;;;;;;13.13;1.98;;;9.70;99.90;;;;;;5049986;28;20066;-75
2022/10/06 05:06:31;;;;;;;9.20;1.50;;;9.70;99.90;;;;;;5052853;28;20074;-76
2022/10/06 05:08:59;;;;;;;12.98;1.50;;;9.70;99.90;;;;;;5071250;28;20050;-75
2022/10/06 05:11:25;;;;;;;8.88;1.75;;;9.70;99.90;;;;;;5050135;28;20056;-75
2022/10/06 05:13:53;;;;;;;8.00;1.80;;;9.70;99.90;;;;;;5044220;28;20127;-78
2022/10/06 05:16:20;;;;;;;15.60;2.00;;;9.70;99.90;;;;;;5054016;28;20045;-75
2022/10/06 05:18:46;;;;;;;11.90;1.60;;;9.70;99.90;;;;;;5043886;28;20401;-77
2022/10/06 05:21:16;;;;;;;10.55;1.42;;;9.60;99.90;;;;;;5061281;28;20046;-77
2022/10/06 05:23:42;;;;;;;9.73;1.63;;;9.60;99.90;;;;;;5060141;28;20103;-77
2022/10/06 05:26:11;;;;;;;12.25;1.85;;;9.60;99.90;;;;;;5037210;28;20045;-77
2022/10/06 05:28:37;;;;;;;10.77;1.98;;;9.70;99.90;;;;;;5067747;28;20089;-77
2022/10/06 05:31:18;;;;;;;12.20;1.67;;;9.70;99.90;;;;;;5038518;28;20058;-80
2022/10/06 05:33:43;;;;;;;13.60;1.95;;;9.60;99.90;;;;;;5055326;28;20513;-77
2022/10/06 05:36:12;;;;;;;12.20;1.45;;;9.60;99.90;;;;;;5060366;28;20144;-78
2022/10/06 05:38:38;;;;;;;12.93;1.30;;;9.60;99.90;;;;;;5044681;28;20048;-78
2022/10/06 05:41:10;;;;;;;14.02;2.22;;;9.70;99.90;;;;;;5070119;28;20099;-79
2022/10/06 05:43:37;;;;;;;9.40;1.83;;;9.80;99.90;;;;;;5052651;28;20482;-77
2022/10/06 05:46:05;;;;;;;14.48;2.35;;;9.80;99.90;;;;;;5045121;28;20061;-77
2022/10/06 05:48:31;;;;;;;9.50;1.30;;;9.80;99.90;;;;;;5070113;28;20036;-75
2022/10/06 05:51:05;;;;;;;11.18;1.80;;;9.80;99.90;;;;;;5050417;28;20379;-75
2022/10/06 05:53:34;;;;;;;16.10;2.42;;;9.70;99.90;;;;;;5070606;28;20124;-77
2022/10/06 05:56:09;;;;;;;14.07;2.22;;;9.70;99.90;;;;;;5068945;28;20413;-81
2022/10/06 05:58:36;;;;;;;11.10;1.40;;;9.70;99.90;;;;;;5054368;28;20130;-74
2022/10/06 06:01:09;;;;;;;12.77;1.88;;;9.80;99.90;;;;;;5054008;28;20048;-75
2022/10/06 06:03:36;;;;;;;11.40;1.80;;;9.70;99.90;;;;;;5071295;28;20059;-75
2022/10/06 06:06:04;;;;;;;13.07;2.88;;;9.70;99.90;;;;;;5070658;28;20121;-75
2022/10/06 06:08:29;;;;;;;12.40;2.28;;;9.70;99.90;;;;;;5070862;28;20083;-75
2022/10/06 06:11:04;;;;;;;18.48;1.98;;;9.70;99.90;;;;;;5037683;28;20373;-75
2022/10/06 06:13:30;;;;;;;11.63;1.90;;;9.70;99.90;;;;;;5044393;28;20821;-75
2022/10/06 06:16:03;;;;;;;13.73;1.85;;;9.70;99.90;;;;;;5085537;28;20043;-75
2022/10/06 06:18:33;;;;;;;17.05;1.90;;;9.70;99.90;;;;;;5038467;28;20126;-73
2022/10/06 06:21:01;;;;;;;15.38;1.73;;;9.70;99.90;;;;;;5053129;28;20051;-77
2022/10/06 06:23:33;;;;;;;14.85;1.90;;;9.70;99.90;;;;;;5070088;28;20504;-77
2022/10/06 06:26:01;;;;;;;13.40;1.92;;;9.70;99.90;;;;;;5070252;28;20051;-76
2022/10/06 06:28:28;;;;;;;11.73;1.70;;;9.60;99.90;;;;;;5069652;28;20043;-77
2022/10/06 06:31:02;;;;;;;13.25;1.77;;;9.70;99.90;;;;;;5070874;28;20127;-76
2022/10/06 06:33:29;;;;;;;11.38;2.40;;;9.60;99.90;;;;;;5072380;28;20167;-77
2022/10/06 06:35:56;;;;;;;11.75;2.20;;;9.70;99.90;;;;;;5074526;28;20052;-77
2022/10/06 06:38:22;;;;;;;15.93;1.73;;;9.70;99.90;;;;;;5073156;28;20517;-77
2022/10/06 06:40:47;;;;;;;12.35;2.15;;;9.70;99.90;;;;;;5092602;28;20052;-77
2022/10/06 06:43:13;;;;;;;14.82;2.33;;;9.70;99.90;;;;;;5074903;28;20131;-79
2022/10/06 06:45:39;;;;;;;13.50;2.25;;;9.70;99.90;;;;;;5075023;28;20051;-75
2022/10/06 06:48:04;;;;;;;15.73;1.95;;;9.70;99.90;;;;;;5074383;28;20048;-75
2022/10/06 06:50:31;;;;;;;16.38;1.77;;;9.80;99.90;;;;;;5074812;28;20048;-75
2022/10/06 06:52:57;;;;;;;17.95;2.10;;;9.80;99.90;;;;;;5057965;28;20056;-75
2022/10/06 06:55:23;;;;;;;13.63;2.03;;;9.80;99.90;;;;;;5057719;28;20059;-75
2022/10/06 06:57:49;;;;;;;14.30;2.22;;;9.80;99.90;;;;;;5044958;28;20057;-74
2022/10/06 07:00:16;;;;;;;9.88;1.55;;;9.80;99.90;;;;;;5074640;28;20048;-80
2022/10/06 07:02:42;;;;;;;12.18;1.98;;;9.90;99.90;;;;;;5074779;28;20055;-75
2022/10/06 07:05:09;;;;;;;14.45;2.15;;;9.90;99.90;;;;;;5048806;28;20047;-75
2022/10/06 07:07:35;;;;;;;12.05;2.15;;;10.00;99.90;;;;;;5050822;28;20127;-74
2022/10/06 07:10:00;;;;;;;9.50;2.00;;;10.00;99.90;;;;;;5030001;28;20533;-74
2022/10/06 07:12:26;;;;;;;19.02;3.03;;;10.00;99.90;;;;;;5073610;28;20451;-75
2022/10/06 07:25:51;;;;;;;17.35;2.58;;;10.40;99.90;;;;;;5067045;28;20044;-74
2022/10/06 07:28:17;;;;;;;13.02;2.17;;;10.50;99.90;;;;;;5067334;28;20046;-74
2022/10/06 07:30:43;;;;;;;14.50;1.92;;;10.60;99.90;;;;;;5039728;28;20440;-74
2022/10/06 07:33:09;;;;;;;15.25;2.20;;;10.60;99.90;;;;;;5050926;28;20742;-79
2022/10/06 07:35:38;;;;;;;13.02;1.85;;;10.70;99.90;;;;;;5039303;28;20140;-77
2022/10/06 07:38:07;;;;;;;18.98;2.20;;;10.70;99.90;;;;;;5068000;28;20044;-77
2022/10/06 07:40:34;;;;;;;13.32;2.63;;;10.80;99.90;;;;;;5073183;28;20036;-77
2022/10/06 07:43:01;;;;;;;15.75;1.85;;;10.80;99.90;;;;;;5073907;28;20096;-81
2022/10/06 07:45:37;;;;;;;11.63;1.83;;;10.90;99.90;;;;;;5032693;28;20041;-77
2022/10/06 07:48:05;;;;;;;17.35;2.20;;;11.10;99.90;;;;;;5049016;28;20074;-77
2022/10/06 07:50:31;;;;;;;15.70;1.90;;;11.20;99.90;;;;;;5053769;28;20045;-77
2022/10/06 07:53:00;;;;;;;14.20;2.03;;;11.20;99.90;;;;;;5039805;28;20083;-77
2022/10/06 07:55:25;;;;;;;10.43;1.70;;;11.30;99.90;;;;;;5047396;28;20086;-77
2022/10/06 07:57:51;;;;;;;8.85;2.08;;;11.30;99.90;;;;;;5050312;28;20499;-77
2022/10/06 08:00:21;;;;;;;13.27;1.90;;;11.40;99.90;;;;;;5020729;28;20053;-77
2022/10/06 08:02:47;;;;;;;9.77;1.75;;;11.50;99.90;;;;;;5057257;28;20096;-77
2022/10/06 08:05:12;;;;;;;12.85;2.40;;;11.60;99.90;;;;;;5064334;28;20048;-77
2022/10/06 08:07:39;;;;;;;9.90;2.08;;;11.60;99.90;;;;;;5056406;28;20483;-77
2022/10/06 08:10:05;;;;;;;12.18;2.15;;;11.70;99.90;;;;;;5055663;28;20047;-77
2022/10/06 08:12:36;;;;;;;19.08;2.10;;;11.70;99.90;;;;;;5073138;28;20055;-77
2022/10/06 08:15:05;;;;;;;14.68;2.05;;;11.80;99.90;;;;;;5057256;28;20055;-77
2022/10/06 08:17:32;;;;;;;15.18;2.50;;;11.90;99.90;;;;;;5026336;28;20122;-77
2022/10/06 08:19:58;;;;;;;13.00;2.35;;;11.90;99.90;;;;;;5045562;28;20080;-77
2022/10/06 08:22:28;;;;;;;9.50;1.80;;;12.00;99.90;;;;;;5057243;28;20071;-77
2022/10/06 08:24:56;;;;;;;11.30;1.75;;;12.10;99.90;;;;;;5061750;28;20051;-77
2022/10/06 08:27:29;;;;;;;13.32;2.13;;;12.10;99.90;;;;;;5037035;28;20056;-77
2022/10/06 08:29:55;;;;;;;11.45;2.30;;;12.10;99.90;;;;;;5053680;28;20060;-77
2022/10/06 08:32:22;;;;;;;13.15;2.65;;;12.20;99.90;;;;;;5069649;28;20537;-77
2022/10/06 08:34:48;;;;;;;17.30;2.67;;;12.30;99.90;;;;;;5046051;28;20604;-78
2022/10/06 08:37:16;;;;;;;11.00;2.38;;;12.30;99.90;;;;;;5073073;28;20503;-78
2022/10/06 08:39:41;;;;;;;14.93;2.00;;;12.40;99.90;;;;;;5072514;28;20052;-77
2022/10/06 08:42:18;;;;;;;11.25;2.35;;;12.50;99.90;;;;;;5067013;28;20375;-77
2022/10/06 08:44:47;;;;;;;16.75;3.70;;;12.50;99.90;;;;;;5065850;28;20040;-78
2022/10/06 08:47:16;;;;;;;21.02;2.80;;;12.60;99.90;;;;;;5053574;28;20038;-77
2022/10/06 08:49:47;;;;;;;12.63;2.72;;;12.70;99.90;;;;;;5036773;28;20052;-77
2022/10/06 08:52:48;;;;;;;9.60;2.42;;;12.80;99.90;;;;;;5053191;28;20543;-78
2022/10/06 08:55:40;;;;;;;17.80;3.35;;;12.90;99.90;;;;;;5017855;28;20056;-78
2022/10/06 08:58:29;;;;;;;15.40;3.28;;;13.00;99.90;;;;;;5054515;28;20502;-77
2022/10/06 09:01:14;;;;;;;18.52;2.55;;;13.10;99.90;;;;;;5036880;28;20494;-78
2022/10/06 09:03:44;;;;;;;15.60;3.83;;;13.30;99.90;;;;;;5052825;28;20084;-78
2022/10/06 09:06:36;;;;;;;14.52;3.15;;;13.40;99.90;;;;;;5021347;28;20646;-78
2022/10/06 09:09:05;;;;;;;12.07;3.30;;;13.50;99.90;;;;;;5053267;28;20059;-81
2022/10/06 09:11:42;;;;;;;20.15;5.80;;;13.60;99.90;;;;;;5071000;28;20044;-79
2022/10/06 09:14:24;;;;;;;14.60;3.08;;;13.70;99.90;;;;;;5070627;28;20443;-78
2022/10/06 09:16:56;;;;;;;20.88;3.72;;;13.80;99.90;;;;;;5071841;28;20339;-78
2022/10/06 09:19:46;;;;;;;14.88;3.83;;;13.90;99.90;;;;;;5069961;28;20061;-77
2022/10/06 09:22:19;;;;;;;14.23;3.58;;;14.00;99.90;;;;;;5071307;28;20197;-78
2022/10/06 09:24:49;;;;;;;20.42;3.65;;;14.00;99.90;;;;;;5070436;28;20048;-78
2022/10/06 09:27:20;;;;;;;16.33;3.10;;;14.00;99.90;;;;;;5070924;28;20044;-78
2022/10/06 09:29:47;;;;;;;14.68;3.60;;;14.10;99.90;;;;;;5054154;28;20134;-76
2022/10/06 09:32:14;;;;;;;15.88;3.28;;;14.30;99.90;;;;;;5051481;28;20051;-76
2022/10/06 09:34:54;;;;;;;14.52;2.95;;;14.50;99.90;;;;;;5048719;28;20134;-77
2022/10/06 09:37:20;;;;;;;11.02;2.75;;;14.80;99.90;;;;;;5060159;28;20489;-76
2022/10/06 09:39:50;;;;;;;9.85;2.50;;;15.00;99.90;;;;;;5069230;28;20541;-75
2022/10/06 09:42:34;;;;;;;16.80;3.22;;;15.10;99.90;;;;;;5038857;28;20397;-75
2022/10/06 09:44:59;;;;;;;8.93;2.65;;;15.10;99.90;;;;;;5053771;28;20738;-76
2022/10/06 09:47:31;;;;;;;16.13;2.80;;;15.30;99.90;;;;;;5071407;28;20048;-76
2022/10/06 09:50:14;;;;;;;9.98;2.55;;;15.60;99.90;;;;;;5070082;28;20063;-75
2022/10/06 09:53:02;;;;;;;12.20;1.98;;;15.70;67.10;;;;;;5071185;28;20081;-76
2022/10/06 09:55:36;;;;;;;13.70;1.98;;;15.70;99.90;;;;;;5061594;28;20143;-78
2022/10/06 09:58:23;;;;;;;11.18;1.83;;;15.80;7.40;;;;;;5069343;28;20489;-76
2022/10/06 10:00:53;;;;;;;12.45;2.00;;;15.70;1.00;;;;;;5067317;28;20056;-76
2022/10/06 10:03:20;;;;;;;9.98;1.20;;;15.60;27.60;;;;;;5042998;28;20054;-77
2022/10/06 10:05:48;;;;;;;9.32;1.08;;;15.70;6.80;;;;;;5069365;28;20557;-76
2022/10/06 10:08:30;;;;;;;10.85;1.35;;;15.70;1.00;;;;;;5070608;28;20404;-77
2022/10/06 10:13:54;;;;;;;9.07;1.73;;;15.80;75.50;;;;;;5070672;28;20054;-77
2022/10/06 10:16:24;;;;;;;3.25;1.05;;;15.80;1.00;;;;;;5055168;28;20544;-77
2022/10/06 10:18:51;;;;;;;6.63;1.30;;;15.80;1.00;;;;;;5070932;28;20439;-77
2022/10/06 10:21:28;;;;;;;6.70;1.60;;;15.80;99.90;;;;;;5046811;28;20528;-76
2022/10/06 10:23:56;;;;;;;12.77;1.13;;;15.80;1.00;;;;;;5063936;28;20807;-76
2022/10/06 10:26:43;;;;;;;9.80;1.30;;;15.80;22.80;;;;;;5035140;28;20057;-76
2022/10/06 10:29:35;;;;;;;5.57;1.67;;;15.90;99.90;;;;;;5051308;28;20557;-78
2022/10/06 10:32:08;;;;;;;9.27;1.55;;;16.00;99.90;;;;;;5051151;28;20101;-76
2022/10/06 10:35:02;;;;;;;6.97;1.63;;;16.00;99.90;;;;;;5060421;28;20056;-77
2022/10/06 10:37:46;;;;;;;5.40;1.20;;;16.00;1.00;;;;;;5051788;28;20441;-76
2022/10/06 10:40:33;;;;;;;8.10;1.38;;;16.00;29.90;;;;;;5039142;28;20040;-76
2022/10/06 10:43:28;;;;;;;5.03;1.10;;;16.30;93.00;;;;;;5067681;28;20056;-76
2022/10/06 10:46:15;;;;;;;3.45;1.00;;;16.60;99.90;;;;;;5061399;28;20044;-76
2022/10/06 10:49:16;;;;;;;9.50;1.73;;;16.80;1.00;;;;;;5064719;28;20041;-77
2022/10/06 10:52:08;;;;;;;6.80;1.40;;;16.90;99.90;;;;;;4991258;28;20108;-77
2022/10/06 10:54:47;;;;;;;5.78;1.10;;;16.90;99.90;;;;;;5049921;28;20122;-77
2022/10/06 10:57:16;;;;;;;5.45;1.50;;;16.70;98.60;;;;;;5035340;28;20474;-77
2022/10/06 10:59:59;;;;;;;6.22;1.20;;;16.50;99.90;;;;;;5049399;28;20052;-76
2022/10/06 11:02:27;;;;;;;8.68;1.88;;;16.60;70.70;;;;;;5051633;28;20127;-77
2022/10/06 11:05:00;;;;;;;7.00;1.15;;;16.60;57.40;;;;;;5050824;28;20049;-76
2022/10/06 11:07:43;;;;;;;7.30;1.48;;;16.60;90.20;;;;;;5053616;28;20387;-77
2022/10/06 11:10:19;;;;;;;6.97;1.52;;;16.70;1.00;;;;;;5068312;28;20055;-78
2022/10/06 11:13:03;;;;;;;7.57;1.30;;;16.90;2.80;;;;;;5053528;28;20051;-76
2022/10/06 11:15:35;;;;;;;8.40;1.48;;;17.10;1.00;;;;;;5047633;28;20097;-77
2022/10/06 11:18:14;;;;;;;5.32;1.10;;;17.50;1.00;;;;;;5062915;28;20394;-76
2022/10/06 11:20:56;;;;;;;7.20;1.35;;;17.80;1.00;;;;;;5053640;28;20055;-76
2022/10/06 11:23:39;;;;;;;5.60;1.30;;;18.00;1.00;;;;;;5074623;28;20048;-76
2022/10/06 11:26:34;;;;;;;6.00;1.30;;;18.20;1.00;;;;;;5045284;28;20541;-76
2022/10/06 11:29:06;;;;;;;4.97;1.50;;;18.00;1.00;;;;;;5039165;28;20080;-77
2022/10/06 11:31:53;;;;;;;6.70;1.25;;;17.80;1.00;;;;;;5038352;28;20048;-76
2022/10/06 11:34:19;;;;;;;6.00;1.73;;;17.80;1.00;;;;;;5038343;28;20048;-76
2022/10/06 11:36:47;;;;;;;6.05;1.10;;;17.80;1.00;;;;;;5054194;28;20063;-77
2022/10/06 11:39:35;;;;;;;5.50;1.13;;;17.70;1.00;;;;;;5064638;28;20269;-77
2022/10/06 11:42:06;;;;;;;7.35;1.35;;;17.70;1.00;;;;;;5068672;28;20048;-77
2022/10/06 11:44:43;;;;;;;5.30;1.13;;;17.80;1.00;;;;;;5057800;28;20040;-76
2022/10/06 11:47:30;;;;;;;7.93;1.20;;;17.60;1.00;;;;;;5073711;28;20066;-76
2022/10/06 11:49:56;;;;;;;8.48;1.58;;;17.70;1.00;;;;;;5060550;28;20040;-77
2022/10/06 11:52:21;;;;;;;7.25;1.40;;;17.70;1.00;;;;;;5030567;28;20060;-76
2022/10/06 11:55:10;;;;;;;8.00;1.50;;;17.70;1.00;;;;;;5056940;28;20781;-76
2022/10/06 11:58:10;;;;;;;7.63;1.00;;;17.60;1.00;;;;;;5055478;28;20436;-76
2022/10/06 12:00:35;;;;;;;7.05;1.20;;;17.60;1.00;;;;;;5038402;28;20139;-76
2022/10/06 12:03:29;;;;;;;5.07;0.90;;;17.60;1.00;;;;;;5052788;28;20128;-76
2022/10/06 12:05:56;;;;;;;3.20;0.90;;;17.70;1.00;;;;;;5050825;28;20040;-80
2022/10/06 12:08:36;;;;;;;7.15;1.23;;;17.70;1.00;;;;;;5054747;28;20090;-76
2022/10/06 12:11:02;;;;;;;6.65;0.80;;;17.90;1.00;;;;;;5069792;28;20544;-76
2022/10/06 12:13:43;;;;;;;7.93;1.10;;;18.00;1.00;;;;;;5046992;28;20041;-76
2022/10/06 12:16:17;;;;;;;4.60;0.65;;;18.10;1.00;;;;;;5071576;28;20164;-76
2022/10/06 12:18:57;;;;;;;5.57;1.40;;;18.20;1.00;;;;;;5060417;28;20044;-77
2022/10/06 12:21:36;;;;;;;3.72;0.80;;;18.50;1.00;;;;;;5064603;28;20185;-77
2022/10/06 12:24:37;;;;;;;4.43;1.02;;;18.90;1.00;;;;;;5070232;28;20040;-76
2022/10/06 12:27:25;;;;;;;3.92;1.17;;;19.30;1.00;;;;;;5072706;28;20136;-77
2022/10/06 12:30:17;;;;;;;5.32;0.88;;;19.90;1.00;;;;;;5073442;28;20101;-76
2022/10/06 12:32:48;;;;;;;5.82;1.00;;;20.40;1.00;;;;;;5063073;28;20044;-76
2022/10/06 12:35:14;;;;;;;6.57;1.35;;;20.80;1.00;;;;;;5072131;28;20048;-78
2022/10/06 12:37:45;;;;;;;4.95;0.90;;;21.10;1.00;;;;;;5072972;28;20120;-77
2022/10/06 12:40:48;;;;;;;8.63;1.35;;;21.40;1.00;;;;;;5072053;28;20051;-76
2022/10/06 12:43:16;;;;;;;5.22;1.30;;;21.70;1.00;;;;;;5058869;28;20135;-78
2022/10/06 12:45:54;;;;;;;5.65;1.10;;;20.80;1.00;;;;;;5072958;28;20044;-76
2022/10/06 12:48:42;;;;;;;5.90;0.98;;;20.70;1.00;;;;;;5072114;28;20048;-77
2022/10/06 12:51:33;;;;;;;7.03;1.23;;;21.40;1.00;;;;;;5072198;28;20131;-77
2022/10/06 12:54:24;;;;;;;6.22;0.90;;;22.20;1.00;;;;;;5056175;28;20050;-77
2022/10/06 12:57:18;;;;;;;6.80;0.65;;;22.30;1.00;;;;;;5072949;28;20055;-77
2022/10/06 12:59:46;;;;;;;5.45;0.90;;;22.30;1.00;;;;;;5039589;28;20059;-77
2022/10/06 13:02:27;;;;;;;5.40;0.80;;;22.10;1.00;;;;;;5055206;28;20512;-76
2022/10/06 13:05:01;;;;;;;5.53;1.23;;;22.20;1.00;;;;;;5072666;28;20040;-77
2022/10/06 13:07:32;;;;;;;6.85;1.17;;;22.10;1.00;;;;;;5089775;28;20043;-77
2022/10/06 13:10:10;;;;;;;5.22;1.10;;;22.40;1.00;;;;;;5072483;28;20072;-77
2022/10/06 13:12:37;;;;;;;11.35;1.88;;;22.30;1.00;;;;;;5059246;28;20047;-77
2022/10/06 13:15:17;;;;;;;6.70;1.30;;;22.20;1.00;;;;;;5056230;28;20624;-76
2022/10/06 13:17:56;;;;;;;6.93;1.10;;;22.40;1.00;;;;;;5067077;28;20510;-76
2022/10/06 13:20:21;;;;;;;6.63;1.70;;;22.90;1.00;;;;;;5051789;28;20490;-76